Time;durP1;ratioP1;P1;durP2;ratioP2;P2;SDS_P1;SDS_P2;PMS_P1;PMS_P2;Temp;Humidity;BMP_temperature;BMP_pressure;BME280_temperature;BME280_humidity;BME280_pressure;Samples;Min_cycle;Max_cycle;Signal;HPM_P1;HPM_P2
2023/10/02 00:01:06;;;;;;;21.48;15.52;;;16.80;93.10;;;;;;4973395;28;20276;-87
2023/10/02 00:03:31;;;;;;;25.75;16.02;;;16.80;93.10;;;;;;4974085;28;20537;-86
2023/10/02 00:05:57;;;;;;;25.17;16.70;;;16.80;93.10;;;;;;4972854;28;20675;-87
2023/10/02 00:08:31;;;;;;;27.20;15.90;;;16.80;93.20;;;;;;4973107;28;20307;-87
2023/10/02 00:11:08;;;;;;;28.73;18.38;;;16.70;93.20;;;;;;4974276;28;20213;-86
2023/10/02 00:13:34;;;;;;;24.75;17.33;;;16.80;93.20;;;;;;4974103;28;20159;-86
2023/10/02 00:15:59;;;;;;;24.80;16.52;;;16.80;93.20;;;;;;4972861;28;20667;-88
2023/10/02 00:18:27;;;;;;;28.83;16.27;;;16.80;93.10;;;;;;4973948;28;20209;-88
2023/10/02 00:21:17;;;;;;;24.77;17.40;;;16.70;93.10;;;;;;4976507;28;20179;-87
2023/10/02 00:23:59;;;;;;;28.95;17.45;;;16.80;93.10;;;;;;4977842;28;20183;-86
2023/10/02 00:26:25;;;;;;;30.00;17.35;;;16.70;93.20;;;;;;4976493;28;20163;-87
2023/10/02 00:28:50;;;;;;;31.15;17.55;;;16.70;93.20;;;;;;4976407;28;20185;-87
2023/10/02 00:31:32;;;;;;;23.90;16.83;;;16.70;93.30;;;;;;4976429;28;20185;-86
2023/10/02 00:33:59;;;;;;;30.13;17.05;;;16.70;93.30;;;;;;4976115;28;20214;-87
2023/10/02 00:36:25;;;;;;;27.88;17.08;;;16.70;93.30;;;;;;4977567;28;20178;-87
2023/10/02 00:38:51;;;;;;;35.25;17.75;;;16.70;93.20;;;;;;4977499;28;20167;-88
2023/10/02 00:41:16;;;;;;;32.05;17.95;;;16.70;93.30;;;;;;4977343;28;20218;-87
2023/10/02 00:43:45;;;;;;;31.95;17.23;;;16.70;93.20;;;;;;4977470;28;20183;-87
2023/10/02 00:46:23;;;;;;;29.02;16.85;;;16.70;93.20;;;;;;4976024;28;20271;-87
2023/10/02 00:48:51;;;;;;;24.30;16.35;;;16.70;93.20;;;;;;4977348;28;20183;-87
2023/10/02 00:51:17;;;;;;;25.83;16.70;;;16.70;93.20;;;;;;4977204;28;20241;-88
2023/10/02 00:53:48;;;;;;;28.05;17.95;;;16.70;93.20;;;;;;4975827;28;20650;-87
2023/10/02 00:56:19;;;;;;;29.08;17.42;;;16.70;93.20;;;;;;4977178;28;20158;-87
2023/10/02 00:58:55;;;;;;;28.45;18.20;;;16.70;93.10;;;;;;4977267;28;20151;-88
2023/10/02 01:01:24;;;;;;;29.65;18.40;;;16.70;93.10;;;;;;4975958;28;20170;-88
2023/10/02 01:04:09;;;;;;;28.15;18.13;;;16.70;93.00;;;;;;4975711;28;20248;-88
2023/10/02 01:06:54;;;;;;;33.47;17.83;;;16.70;93.00;;;;;;4976956;28;20189;-88
2023/10/02 01:09:25;;;;;;;30.90;18.08;;;16.70;93.00;;;;;;4975806;28;20175;-88
2023/10/02 01:11:52;;;;;;;29.67;18.67;;;16.70;93.00;;;;;;4976990;28;20155;-88
2023/10/02 01:14:40;;;;;;;25.90;17.90;;;16.70;93.00;;;;;;4975523;28;20203;-88
2023/10/02 01:17:06;;;;;;;28.50;18.55;;;16.70;93.00;;;;;;4976606;28;20187;-88
2023/10/02 01:19:52;;;;;;;29.40;18.98;;;16.70;93.00;;;;;;4976790;28;20167;-88
2023/10/02 01:22:28;;;;;;;31.70;18.60;;;16.70;93.00;;;;;;4975532;28;20178;-88
2023/10/02 01:25:36;;;;;;;31.00;18.65;;;16.70;93.00;;;;;;4976541;28;20194;-87
2023/10/02 01:27:55;;;;;;;31.08;19.35;;;16.70;93.00;;;;;;4977094;28;20182;-87
2023/10/02 01:30:23;;;;;;;31.63;18.80;;;16.70;93.00;;;;;;4974383;28;20185;-88
2023/10/02 01:33:06;;;;;;;36.10;19.42;;;16.70;93.00;;;;;;4976787;28;20206;-88
2023/10/02 01:35:34;;;;;;;36.85;19.42;;;16.70;93.00;;;;;;4976352;28;20206;-88
2023/10/02 01:38:00;;;;;;;34.55;20.55;;;16.70;93.00;;;;;;4975164;28;20182;-88
2023/10/02 01:40:33;;;;;;;32.15;20.40;;;16.60;93.00;;;;;;4975346;28;20311;-88
2023/10/02 01:43:12;;;;;;;31.17;18.63;;;16.60;93.10;;;;;;4976391;28;20159;-88
2023/10/02 01:45:44;;;;;;;32.35;18.75;;;16.60;93.10;;;;;;4975060;28;20202;-88
2023/10/02 01:48:14;;;;;;;32.25;20.08;;;16.60;93.10;;;;;;4976618;28;20241;-87
2023/10/02 01:50:42;;;;;;;34.05;20.02;;;16.60;93.10;;;;;;4974977;28;20167;-88
2023/10/02 01:53:28;;;;;;;33.45;20.95;;;16.60;93.10;;;;;;4974943;28;20190;-89
2023/10/02 01:56:00;;;;;;;32.83;19.88;;;16.60;93.10;;;;;;4976219;28;20217;-88
2023/10/02 01:58:27;;;;;;;35.97;20.77;;;16.60;93.10;;;;;;4974891;28;20175;-88
2023/10/02 02:00:52;;;;;;;40.65;21.80;;;16.60;93.10;;;;;;4976002;28;20167;-88
2023/10/02 02:03:18;;;;;;;34.90;21.40;;;16.60;93.10;;;;;;4975875;28;20179;-88
2023/10/02 02:05:44;;;;;;;31.85;20.52;;;16.60;93.10;;;;;;4975712;28;20642;-88
2023/10/02 02:08:22;;;;;;;37.38;20.67;;;16.50;93.10;;;;;;4974854;28;20235;-88
2023/10/02 02:10:54;;;;;;;38.75;20.88;;;16.50;93.10;;;;;;4974498;28;20178;-88
2023/10/02 02:13:20;;;;;;;40.22;21.80;;;16.50;93.10;;;;;;4976248;28;20166;-88
2023/10/02 02:15:51;;;;;;;33.70;21.52;;;16.60;93.10;;;;;;4974321;28;20214;-88
2023/10/02 02:18:19;;;;;;;35.25;21.13;;;16.60;93.10;;;;;;4975908;28;20523;-88
2023/10/02 02:20:57;;;;;;;33.33;19.70;;;16.50;93.10;;;;;;4974369;28;20174;-88
2023/10/02 02:23:24;;;;;;;32.28;21.10;;;16.60;93.00;;;;;;4974911;28;20171;-88
2023/10/02 02:25:50;;;;;;;32.63;21.20;;;16.60;93.00;;;;;;4974419;28;20194;-88
2023/10/02 02:28:16;;;;;;;35.05;21.60;;;16.50;93.00;;;;;;4974270;28;20246;-88
2023/10/02 02:30:43;;;;;;;37.75;22.00;;;16.50;93.10;;;;;;4974383;28;20174;-88
2023/10/02 02:33:09;;;;;;;35.22;20.65;;;16.50;93.20;;;;;;4975547;28;20706;-88
2023/10/02 02:35:35;;;;;;;33.92;22.08;;;16.50;93.20;;;;;;4974767;28;20206;-88
2023/10/02 02:38:13;;;;;;;39.08;22.33;;;16.50;93.20;;;;;;4975366;28;20702;-88
2023/10/02 02:40:42;;;;;;;44.38;23.20;;;16.40;93.20;;;;;;4973793;28;20182;-88
2023/10/02 02:43:19;;;;;;;39.47;22.65;;;16.40;93.30;;;;;;4975227;28;20528;-87
2023/10/02 02:45:45;;;;;;;40.08;23.98;;;16.40;93.30;;;;;;4974004;28;20199;-87
2023/10/02 02:48:12;;;;;;;37.80;23.58;;;16.40;93.30;;;;;;4975211;28;20666;-87
2023/10/02 02:50:41;;;;;;;39.72;23.08;;;16.40;93.40;;;;;;4973906;28;20206;-88
2023/10/02 02:53:27;;;;;;;39.75;23.10;;;16.40;93.30;;;;;;4975292;28;20198;-87
2023/10/02 02:56:23;;;;;;;41.30;23.95;;;16.40;93.30;;;;;;4974542;28;20641;-87
2023/10/02 02:58:55;;;;;;;37.22;23.45;;;16.40;93.30;;;;;;4973684;28;20174;-87
2023/10/02 03:01:22;;;;;;;39.00;25.33;;;16.40;93.30;;;;;;4973995;28;20623;-87
2023/10/02 03:03:57;;;;;;;38.13;24.13;;;16.40;93.30;;;;;;4973685;28;20671;-87
2023/10/02 03:06:23;;;;;;;44.85;24.50;;;16.40;93.40;;;;;;4974899;28;20657;-87
2023/10/02 03:08:52;;;;;;;38.25;25.13;;;16.50;93.40;;;;;;4973816;28;20599;-87
2023/10/02 03:11:19;;;;;;;45.25;25.65;;;16.40;93.40;;;;;;4974070;28;20257;-87
2023/10/02 03:13:49;;;;;;;34.25;23.27;;;16.40;93.40;;;;;;4974791;28;20170;-88
2023/10/02 03:16:18;;;;;;;38.53;23.83;;;16.50;93.40;;;;;;4974909;28;20171;-87
2023/10/02 03:18:44;;;;;;;43.85;25.65;;;16.50;93.30;;;;;;4973679;28;20180;-87
2023/10/02 03:21:22;;;;;;;41.03;23.98;;;16.50;93.30;;;;;;4974802;28;20539;-87
2023/10/02 03:23:49;;;;;;;41.80;24.52;;;16.40;93.30;;;;;;4973633;28;20175;-87
2023/10/02 03:26:26;;;;;;;41.47;24.73;;;16.40;93.30;;;;;;4974969;28;20642;-88
2023/10/02 03:29:02;;;;;;;39.67;24.30;;;16.50;93.20;;;;;;4973447;28;20179;-87
2023/10/02 03:31:43;;;;;;;36.72;25.13;;;16.40;93.20;;;;;;4973482;28;20171;-87
2023/10/02 03:36:55;;;;;;;40.00;24.33;;;16.40;93.20;;;;;;4974583;28;20174;-89
2023/10/02 03:39:51;;;;;;;43.17;25.45;;;16.40;93.10;;;;;;4974408;28;20182;-88
2023/10/02 03:42:13;;;;;;;44.00;25.75;;;16.30;93.00;;;;;;4974213;28;20559;-87
2023/10/02 03:44:40;;;;;;;42.35;25.00;;;16.30;92.90;;;;;;4973112;28;20198;-88
2023/10/02 03:47:06;;;;;;;38.70;24.83;;;16.30;92.80;;;;;;4974362;28;20170;-87
2023/10/02 03:49:35;;;;;;;44.30;25.08;;;16.20;92.70;;;;;;4973277;28;20170;-87
2023/10/02 03:52:00;;;;;;;40.60;25.48;;;16.20;92.70;;;;;;4973122;28;20258;-87
2023/10/02 03:54:29;;;;;;;47.58;25.17;;;16.20;92.70;;;;;;4977540;28;20639;-88
2023/10/02 03:56:55;;;;;;;44.30;25.77;;;16.10;92.70;;;;;;4977113;28;20175;-88
2023/10/02 03:59:25;;;;;;;38.78;24.27;;;16.10;92.80;;;;;;4978305;28;20178;-88
2023/10/02 04:01:52;;;;;;;40.80;24.98;;;16.10;92.80;;;;;;4978135;28;20160;-87
2023/10/02 04:04:21;;;;;;;45.63;23.65;;;16.10;92.90;;;;;;4976744;28;20209;-88
2023/10/02 04:06:50;;;;;;;39.45;24.02;;;16.10;92.80;;;;;;4978562;28;20190;-88
2023/10/02 04:09:23;;;;;;;40.13;25.02;;;16.10;92.80;;;;;;4978041;28;20167;-88
2023/10/02 04:11:50;;;;;;;39.83;23.45;;;16.10;92.80;;;;;;4978156;28;20189;-88
2023/10/02 04:14:17;;;;;;;41.88;23.20;;;16.00;92.90;;;;;;4976702;28;20245;-88
2023/10/02 04:17:00;;;;;;;35.72;22.58;;;15.90;92.90;;;;;;4976691;28;20210;-89
2023/10/02 04:19:26;;;;;;;43.80;23.25;;;15.90;93.00;;;;;;4976621;28;20682;-86
2023/10/02 04:21:53;;;;;;;42.70;23.90;;;15.80;93.10;;;;;;4976706;28;20224;-88
2023/10/02 04:24:23;;;;;;;44.20;24.70;;;15.80;93.20;;;;;;4976550;28;20195;-90
2023/10/02 04:26:54;;;;;;;35.17;22.10;;;15.80;93.30;;;;;;4978007;28;20163;-88
2023/10/02 04:29:26;;;;;;;49.47;24.92;;;15.80;93.40;;;;;;4976544;28;20671;-88
2023/10/02 04:32:12;;;;;;;48.22;25.60;;;15.80;93.40;;;;;;4978008;28;20167;-88
2023/10/02 04:34:46;;;;;;;37.25;23.35;;;15.70;93.40;;;;;;4976310;28;20213;-88
2023/10/02 04:37:22;;;;;;;45.25;23.83;;;15.70;93.40;;;;;;4977539;28;20627;-89
2023/10/02 04:39:54;;;;;;;38.22;22.90;;;15.70;93.50;;;;;;4977544;28;20166;-88
2023/10/02 04:42:25;;;;;;;40.38;24.30;;;15.70;93.50;;;;;;4976226;28;20183;-87
2023/10/02 04:44:56;;;;;;;39.75;25.02;;;15.70;93.50;;;;;;4977401;28;20190;-88
2023/10/02 04:47:26;;;;;;;41.42;24.02;;;15.70;93.50;;;;;;4977649;28;20270;-88
2023/10/02 04:55:24;;;;;;;40.85;24.58;;;15.60;93.50;;;;;;4977250;28;20342;-88
2023/10/02 04:58:17;;;;;;;43.72;23.63;;;15.60;93.50;;;;;;4975971;28;20167;-88
2023/10/02 05:03:30;;;;;;;40.28;24.70;;;15.60;93.60;;;;;;4977411;28;20159;-87
2023/10/02 05:05:58;;;;;;;39.35;24.75;;;15.50;93.60;;;;;;4975677;28;20232;-88
2023/10/02 05:08:40;;;;;;;48.08;25.13;;;15.50;93.70;;;;;;4976931;28;20175;-88
2023/10/02 05:11:08;;;;;;;45.83;24.63;;;15.50;93.70;;;;;;4975660;28;20179;-88
2023/10/02 05:16:26;;;;;;;36.28;22.63;;;15.60;93.70;;;;;;4977218;28;20170;-88
2023/10/02 05:18:53;;;;;;;35.90;23.23;;;15.60;93.70;;;;;;4975656;28;20182;-88
2023/10/02 05:21:19;;;;;;;41.50;22.25;;;15.60;93.70;;;;;;4975505;28;20311;-88
2023/10/02 05:23:56;;;;;;;35.67;23.02;;;15.50;93.60;;;;;;4976451;28;20206;-88
2023/10/02 05:26:59;;;;;;;37.80;23.30;;;15.50;93.60;;;;;;4976597;28;20151;-88
2023/10/02 05:32:15;;;;;;;44.80;24.27;;;15.40;93.70;;;;;;4977020;28;20242;-87
2023/10/02 05:34:58;;;;;;;37.30;23.25;;;15.50;93.70;;;;;;4976563;28;20194;-88
2023/10/02 05:37:33;;;;;;;39.28;24.75;;;15.40;93.70;;;;;;4975251;28;20249;-88
2023/10/02 05:40:32;;;;;;;40.65;25.00;;;15.40;93.80;;;;;;4976648;28;20158;-88
2023/10/02 05:48:15;;;;;;;40.30;24.25;;;15.50;93.90;;;;;;4976219;28;20159;-88
2023/10/02 05:50:48;;;;;;;37.38;24.10;;;15.50;93.90;;;;;;4974913;28;20159;-87
2023/10/02 05:53:19;;;;;;;39.10;24.20;;;15.50;93.90;;;;;;4976115;28;20171;-88
2023/10/02 05:55:57;;;;;;;43.15;26.65;;;15.50;93.90;;;;;;4975970;28;20214;-87
2023/10/02 05:58:32;;;;;;;39.80;25.55;;;15.60;94.00;;;;;;4974797;28;20245;-87
2023/10/02 06:01:04;;;;;;;45.60;27.00;;;15.60;94.00;;;;;;4974851;28;20174;-88
2023/10/02 06:03:34;;;;;;;45.08;26.40;;;15.70;93.90;;;;;;4975353;28;20627;-88
2023/10/02 06:06:23;;;;;;;45.50;27.30;;;15.70;93.90;;;;;;4976081;28;20281;-88
2023/10/02 06:08:55;;;;;;;45.50;26.48;;;15.80;93.80;;;;;;4976029;28;20162;-89
2023/10/02 06:14:14;;;;;;;44.45;26.65;;;15.90;93.90;;;;;;4982473;28;20225;-89
2023/10/02 06:16:41;;;;;;;46.78;26.83;;;16.00;93.80;;;;;;4973994;28;20604;-88
2023/10/02 06:19:13;;;;;;;36.17;23.25;;;16.00;93.80;;;;;;4975834;28;20167;-88
2023/10/02 06:21:46;;;;;;;37.95;23.27;;;16.10;93.70;;;;;;4974603;28;20174;-88
2023/10/02 06:24:13;;;;;;;40.83;25.98;;;16.20;93.60;;;;;;4974669;28;20201;-88
2023/10/02 06:26:57;;;;;;;47.33;27.05;;;16.20;93.40;;;;;;4974491;28;20540;-88
2023/10/02 06:29:32;;;;;;;41.45;25.88;;;16.30;93.20;;;;;;4974812;28;20658;-88
2023/10/02 06:31:58;;;;;;;40.20;21.55;;;16.30;92.90;;;;;;4975536;28;20173;-88
2023/10/02 06:34:37;;;;;;;39.53;22.55;;;16.30;92.80;;;;;;4974094;28;20217;-88
2023/10/02 06:37:21;;;;;;;41.30;25.10;;;16.40;92.40;;;;;;4974165;28;20166;-88
2023/10/02 06:40:04;;;;;;;38.67;26.85;;;16.50;92.20;;;;;;4974248;28;20230;-88
2023/10/02 06:42:31;;;;;;;34.03;22.92;;;16.50;92.20;;;;;;4974247;28;20247;-88
2023/10/02 06:45:01;;;;;;;34.75;22.23;;;16.50;92.10;;;;;;4975312;28;20191;-88
2023/10/02 06:47:29;;;;;;;35.17;21.40;;;16.60;91.90;;;;;;4974104;28;20266;-88
2023/10/02 06:50:03;;;;;;;37.67;22.40;;;16.60;91.90;;;;;;4974052;28;20723;-88
2023/10/02 06:52:32;;;;;;;35.00;21.95;;;16.70;91.90;;;;;;4974427;28;20233;-88
2023/10/02 06:54:58;;;;;;;34.40;22.67;;;16.70;91.90;;;;;;4974988;28;20206;-88
2023/10/02 06:57:26;;;;;;;35.05;21.25;;;16.80;91.90;;;;;;4973744;28;20257;-88
2023/10/02 06:59:53;;;;;;;32.88;21.88;;;16.80;91.90;;;;;;4975184;28;20229;-89
2023/10/02 07:02:24;;;;;;;35.03;21.77;;;16.80;91.70;;;;;;4973740;28;20179;-88
2023/10/02 07:04:53;;;;;;;34.28;21.48;;;16.80;91.80;;;;;;4973816;28;20198;-87
2023/10/02 07:07:26;;;;;;;38.05;22.17;;;16.80;91.70;;;;;;4973929;28;20209;-87
2023/10/02 07:10:07;;;;;;;33.28;22.33;;;16.80;91.70;;;;;;4974857;28;20738;-88
2023/10/02 07:12:39;;;;;;;30.20;20.98;;;16.90;91.70;;;;;;4974838;28;20216;-88
2023/10/02 07:15:13;;;;;;;31.83;21.33;;;16.90;91.60;;;;;;4974965;28;20688;-88
2023/10/02 07:17:48;;;;;;;37.30;22.73;;;16.90;91.30;;;;;;4973685;28;20627;-88
2023/10/02 07:20:20;;;;;;;32.60;22.27;;;17.00;91.20;;;;;;4974890;28;20583;-88
2023/10/02 07:22:47;;;;;;;30.63;22.02;;;17.10;91.20;;;;;;4974366;28;20626;-90
2023/10/02 07:25:20;;;;;;;32.85;22.27;;;17.10;90.90;;;;;;4973289;28;20209;-90
2023/10/02 07:27:46;;;;;;;37.28;23.13;;;17.20;90.90;;;;;;4973693;28;20619;-90
2023/10/02 07:30:24;;;;;;;32.72;22.13;;;17.20;90.60;;;;;;4974471;28;20565;-90
2023/10/02 07:32:51;;;;;;;32.63;21.50;;;17.20;90.40;;;;;;4974558;28;20157;-89
2023/10/02 07:35:21;;;;;;;38.22;23.13;;;17.30;90.50;;;;;;4973039;28;20213;-88
2023/10/02 07:38:00;;;;;;;34.03;22.85;;;17.30;90.50;;;;;;4974755;28;20598;-90
2023/10/02 07:40:27;;;;;;;32.45;22.20;;;17.40;90.40;;;;;;4973185;28;20173;-88
2023/10/02 07:42:53;;;;;;;30.88;22.92;;;17.40;90.40;;;;;;4974370;28;20175;-88
2023/10/02 07:45:25;;;;;;;35.38;27.23;;;17.40;90.40;;;;;;4973063;28;20209;-88
2023/10/02 07:48:10;;;;;;;36.13;26.52;;;17.50;90.40;;;;;;4973319;28;20261;-88
2023/10/02 07:50:39;;;;;;;36.20;26.98;;;17.60;90.30;;;;;;4973192;28;20617;-88
2023/10/02 07:53:05;;;;;;;36.88;23.55;;;17.70;90.30;;;;;;4973182;28;20625;-88
2023/10/02 07:55:33;;;;;;;36.80;23.08;;;17.70;90.30;;;;;;4974173;28;20705;-88
2023/10/02 07:58:00;;;;;;;38.92;23.00;;;17.70;90.00;;;;;;4974522;28;20185;-88
2023/10/02 08:00:33;;;;;;;39.38;26.92;;;17.80;90.20;;;;;;4972970;28;20186;-88
2023/10/02 08:03:02;;;;;;;44.90;27.92;;;17.80;90.20;;;;;;4973060;28;20218;-87
2023/10/02 08:05:28;;;;;;;35.45;23.77;;;17.80;90.20;;;;;;4974091;28;20207;-88
2023/10/02 08:08:08;;;;;;;33.35;22.30;;;17.80;90.00;;;;;;4974066;28;20205;-88
2023/10/02 08:10:49;;;;;;;35.22;26.42;;;17.90;89.90;;;;;;4972928;28;20233;-88
2023/10/02 08:13:16;;;;;;;35.05;25.92;;;18.00;89.80;;;;;;4972953;28;20178;-87
2023/10/02 08:15:44;;;;;;;39.53;28.58;;;18.00;89.60;;;;;;4974025;28;20203;-88
2023/10/02 08:18:19;;;;;;;30.75;23.08;;;18.00;89.50;;;;;;4974313;28;20545;-87
2023/10/02 08:20:45;;;;;;;32.42;22.73;;;18.00;89.20;;;;;;4972907;28;20177;-87
2023/10/02 08:23:22;;;;;;;36.28;27.20;;;18.10;89.30;;;;;;4972853;28;20558;-88
2023/10/02 08:26:02;;;;;;;42.70;27.80;;;18.20;89.20;;;;;;4972759;28;20209;-88
2023/10/02 08:28:29;;;;;;;40.80;30.08;;;18.30;89.40;;;;;;4972846;28;20261;-88
2023/10/02 08:31:01;;;;;;;35.58;22.70;;;18.30;89.10;;;;;;4974268;28;20178;-87
2023/10/02 08:33:31;;;;;;;33.75;23.58;;;18.20;89.10;;;;;;4972788;28;20270;-87
2023/10/02 08:36:09;;;;;;;37.22;27.33;;;18.20;89.10;;;;;;4973717;28;20202;-88
2023/10/02 08:38:35;;;;;;;40.35;27.65;;;18.30;89.20;;;;;;4972733;28;20535;-88
2023/10/02 08:41:04;;;;;;;30.35;22.45;;;18.30;89.10;;;;;;4977240;28;20758;-89
2023/10/02 08:43:42;;;;;;;36.78;24.30;;;18.50;88.80;;;;;;4976178;28;20664;-88
2023/10/02 08:46:19;;;;;;;35.58;24.08;;;18.70;89.00;;;;;;4977363;28;20741;-88
2023/10/02 08:48:54;;;;;;;35.53;23.67;;;18.80;88.50;;;;;;4976151;28;20631;-88
2023/10/02 08:51:32;;;;;;;30.85;22.58;;;18.70;87.70;;;;;;4977231;28;20566;-88
2023/10/02 08:53:58;;;;;;;31.45;21.48;;;18.90;88.00;;;;;;4975875;28;20198;-88
2023/10/02 08:56:37;;;;;;;34.03;23.52;;;18.90;87.60;;;;;;4977159;28;20174;-88
2023/10/02 08:59:18;;;;;;;32.05;23.17;;;19.10;87.50;;;;;;4977237;28;20210;-88
2023/10/02 09:01:47;;;;;;;33.30;24.27;;;19.20;87.90;;;;;;4977102;28;20218;-88
2023/10/02 09:09:36;;;;;;;32.00;22.60;;;19.20;86.60;;;;;;4977450;28;20546;-87
2023/10/02 09:12:03;;;;;;;31.48;22.52;;;19.20;86.50;;;;;;4975559;28;20179;-88
2023/10/02 09:20:09;;;;;;;28.63;22.33;;;19.50;86.00;;;;;;4986248;28;20729;-87
2023/10/02 09:22:37;;;;;;;31.42;23.42;;;19.50;85.40;;;;;;4975648;28;20170;-87
2023/10/02 09:25:12;;;;;;;34.10;23.55;;;19.60;85.90;;;;;;4975374;28;20202;-88
2023/10/02 09:27:57;;;;;;;34.58;24.10;;;19.70;85.80;;;;;;4976978;28;20155;-87
2023/10/02 09:33:08;;;;;;;28.88;23.60;;;19.70;86.00;;;;;;4976955;28;20162;-87
2023/10/02 09:38:04;;;;;;;31.20;23.00;;;19.80;85.60;;;;;;4976710;28;20170;-88
2023/10/02 09:43:21;;;;;;;37.42;28.17;;;20.10;85.80;;;;;;4976914;28;20287;-88
2023/10/02 09:45:53;;;;;;;35.75;27.85;;;20.20;85.50;;;;;;4975153;28;20194;-88
2023/10/02 09:48:46;;;;;;;35.55;25.90;;;20.20;85.10;;;;;;4976257;28;20178;-88
2023/10/02 09:51:20;;;;;;;29.70;21.10;;;20.40;84.70;;;;;;4975313;28;20159;-88
2023/10/02 09:54:13;;;;;;;34.65;23.13;;;20.60;84.70;;;;;;4959091;28;20179;-87
2023/10/02 09:56:51;;;;;;;33.33;27.33;;;20.60;84.10;;;;;;4968547;28;20190;-87
2023/10/02 09:59:22;;;;;;;36.40;28.67;;;20.70;84.40;;;;;;4976140;28;20186;-87
2023/10/02 10:08:27;;;;;;;36.95;26.77;;;20.70;83.60;;;;;;4976562;28;20182;-86
2023/10/02 10:10:50;;;;;;;33.97;27.60;;;20.70;83.70;;;;;;4975928;28;20778;-87
2023/10/02 10:13:37;;;;;;;32.63;23.48;;;20.80;83.10;;;;;;4974923;28;20277;-87
2023/10/02 10:16:20;;;;;;;29.42;22.98;;;21.00;82.50;;;;;;4975653;28;20270;-88
2023/10/02 10:22:01;;;;;;;29.40;22.45;;;21.00;82.90;;;;;;4976328;28;20159;-90
2023/10/02 10:27:39;;;;;;;35.92;24.77;;;21.00;82.90;;;;;;4976185;28;20685;-87
2023/10/02 10:30:28;;;;;;;39.22;24.25;;;20.90;82.10;;;;;;4974496;28;20179;-86
2023/10/02 10:35:52;;;;;;;34.60;24.38;;;21.10;81.70;;;;;;4975378;28;20616;-87
2023/10/02 10:38:25;;;;;;;31.90;23.50;;;21.20;82.20;;;;;;4975385;28;20194;-88
2023/10/02 10:41:06;;;;;;;34.95;23.40;;;21.20;81.70;;;;;;4975675;28;20162;-87
2023/10/02 10:46:17;;;;;;;32.80;24.35;;;21.20;81.70;;;;;;4975606;28;20205;-88
2023/10/02 10:48:48;;;;;;;32.70;24.23;;;21.20;81.80;;;;;;4974289;28;20627;-87
2023/10/02 10:51:27;;;;;;;30.83;23.83;;;21.10;81.50;;;;;;4974174;28;20572;-88
2023/10/02 10:54:27;;;;;;;30.48;23.58;;;21.20;82.40;;;;;;4973921;28;20206;-88
2023/10/02 10:57:27;;;;;;;27.80;21.95;;;21.10;81.60;;;;;;4974433;28;20190;-88
2023/10/02 11:00:23;;;;;;;34.38;24.27;;;21.10;82.70;;;;;;4975691;28;20162;-88
2023/10/02 11:03:20;;;;;;;33.10;23.92;;;21.10;82.80;;;;;;4974433;28;20185;-88
2023/10/02 11:05:45;;;;;;;29.20;22.92;;;21.10;82.90;;;;;;4973117;28;20258;-88
2023/10/02 11:08:25;;;;;;;30.63;22.20;;;21.20;82.20;;;;;;4974603;28;20598;-88
2023/10/02 11:11:19;;;;;;;42.22;23.13;;;21.40;83.20;;;;;;4975820;28;20209;-90
2023/10/02 11:13:59;;;;;;;30.40;23.75;;;21.30;82.50;;;;;;4973957;28;20175;-87
2023/10/02 11:16:36;;;;;;;29.05;23.67;;;21.20;82.30;;;;;;4975885;28;20174;-87
2023/10/02 11:19:15;;;;;;;30.75;22.63;;;21.20;82.30;;;;;;4976038;28;20664;-87
2023/10/02 11:22:01;;;;;;;33.35;23.45;;;21.10;82.70;;;;;;4975228;28;20166;-87
2023/10/02 11:24:27;;;;;;;30.98;22.67;;;21.00;82.00;;;;;;4975844;28;20658;-87
2023/10/02 11:27:03;;;;;;;34.58;23.50;;;20.90;82.40;;;;;;4975153;28;20179;-87
2023/10/02 11:29:34;;;;;;;31.33;24.05;;;21.00;82.80;;;;;;4974916;28;20551;-86
2023/10/02 11:34:49;;;;;;;34.53;22.17;;;21.10;83.30;;;;;;4974672;28;20264;-87
2023/10/02 11:37:17;;;;;;;29.40;21.38;;;21.40;83.00;;;;;;4974342;28;20158;-87
2023/10/02 11:39:42;;;;;;;29.77;22.15;;;21.50;82.50;;;;;;4973509;28;20174;-87
2023/10/02 11:42:09;;;;;;;36.40;24.27;;;21.50;81.90;;;;;;4974286;28;20166;-87
2023/10/02 11:44:35;;;;;;;32.10;22.95;;;21.50;81.70;;;;;;4973173;28;20678;-88
2023/10/02 11:47:00;;;;;;;33.72;22.52;;;21.30;81.80;;;;;;4974309;28;20194;-87
2023/10/02 11:49:29;;;;;;;32.35;22.10;;;21.40;82.10;;;;;;4974304;28;20175;-87
2023/10/02 11:52:00;;;;;;;30.55;22.55;;;21.50;82.70;;;;;;4973091;28;20175;-87
2023/10/02 11:54:26;;;;;;;28.08;23.13;;;21.50;82.30;;;;;;4972970;28;20210;-88
2023/10/02 11:56:52;;;;;;;30.40;23.75;;;21.50;81.60;;;;;;4973057;28;20673;-88
2023/10/02 11:59:18;;;;;;;31.63;21.63;;;21.50;81.70;;;;;;4972984;28;20178;-90
2023/10/02 12:01:47;;;;;;;30.27;22.27;;;21.40;81.70;;;;;;4973194;28;20182;-89
2023/10/02 12:04:14;;;;;;;30.23;22.08;;;21.40;82.00;;;;;;4973033;28;20199;-89
2023/10/02 12:06:40;;;;;;;29.73;25.63;;;21.50;82.20;;;;;;4972934;28;20190;-90
2023/10/02 12:09:06;;;;;;;34.55;27.65;;;21.50;82.10;;;;;;4972925;28;20167;-87
2023/10/02 12:11:34;;;;;;;32.47;22.15;;;21.50;82.10;;;;;;4974061;28;20179;-87
2023/10/02 12:14:02;;;;;;;38.60;21.75;;;21.50;82.00;;;;;;4974675;28;20318;-87
2023/10/02 12:16:28;;;;;;;33.00;25.50;;;21.60;81.80;;;;;;4977995;28;20163;-87
2023/10/02 12:18:54;;;;;;;38.08;26.88;;;22.00;82.30;;;;;;4977894;28;20178;-88
2023/10/02 12:21:21;;;;;;;34.95;28.15;;;22.20;80.90;;;;;;4978063;28;20540;-89
2023/10/02 12:23:50;;;;;;;29.63;21.08;;;22.30;80.50;;;;;;4976539;28;20185;-87
2023/10/02 12:26:16;;;;;;;30.40;21.92;;;22.60;80.70;;;;;;4977723;28;20261;-87
2023/10/02 12:28:43;;;;;;;30.58;23.35;;;22.40;78.50;;;;;;4979456;28;20278;-91
2023/10/02 12:31:12;;;;;;;35.00;23.30;;;22.50;79.70;;;;;;4979895;28;20273;-91
2023/10/02 12:33:38;;;;;;;37.25;24.58;;;22.50;78.80;;;;;;4981438;28;20183;-91
2023/10/02 12:36:11;;;;;;;32.03;26.88;;;22.40;79.10;;;;;;4982081;28;20321;-91
2023/10/02 12:38:38;;;;;;;35.22;29.10;;;22.50;79.10;;;;;;4980560;28;20171;-90
2023/10/02 12:41:11;;;;;;;33.17;26.83;;;22.60;78.30;;;;;;4979930;28;20186;-91
2023/10/02 12:43:36;;;;;;;30.95;22.60;;;22.70;78.70;;;;;;4978101;28;20631;-91
2023/10/02 12:46:04;;;;;;;32.88;24.25;;;22.90;79.10;;;;;;4982922;28;20190;-91
2023/10/02 12:48:33;;;;;;;28.55;23.73;;;22.90;78.40;;;;;;4983006;28;20202;-90
2023/10/02 12:51:04;;;;;;;31.52;24.75;;;22.80;79.00;;;;;;4981258;28;20214;-91
2023/10/02 12:53:30;;;;;;;31.40;22.67;;;22.50;77.80;;;;;;4981170;28;20226;-91
2023/10/02 12:55:55;;;;;;;37.78;24.23;;;22.10;79.30;;;;;;4981971;28;20198;-90
2023/10/02 12:58:21;;;;;;;35.72;23.80;;;22.20;79.50;;;;;;4982407;28;20182;-91
2023/10/02 13:00:48;;;;;;;30.85;22.85;;;22.20;80.00;;;;;;4981934;28;20210;-91
2023/10/02 13:03:13;;;;;;;30.92;22.45;;;22.10;80.00;;;;;;4982416;28;20181;-91
2023/10/02 13:05:39;;;;;;;33.47;24.55;;;22.20;79.80;;;;;;4979539;28;20214;-92
2023/10/02 13:08:06;;;;;;;28.67;22.48;;;21.90;79.80;;;;;;4978665;28;20183;-90
2023/10/02 13:10:31;;;;;;;30.55;22.85;;;21.80;80.60;;;;;;4979737;28;20182;-91
2023/10/02 13:12:57;;;;;;;27.73;21.20;;;21.80;80.90;;;;;;4979578;28;20192;-91
2023/10/02 13:15:23;;;;;;;29.52;20.73;;;21.90;81.50;;;;;;4979395;28;20211;-90
2023/10/02 13:17:49;;;;;;;27.77;22.08;;;22.00;81.90;;;;;;4979737;28;20177;-90
2023/10/02 13:20:14;;;;;;;30.35;21.65;;;21.90;80.70;;;;;;4978989;28;20174;-91
2023/10/02 13:22:40;;;;;;;26.50;21.08;;;22.00;80.50;;;;;;4978629;28;20210;-91
2023/10/02 13:25:07;;;;;;;28.80;22.00;;;21.80;80.20;;;;;;4978389;28;20213;-91
2023/10/02 13:27:32;;;;;;;28.65;20.80;;;21.90;80.60;;;;;;4977675;28;20183;-90
2023/10/02 13:29:59;;;;;;;29.83;21.92;;;21.90;80.80;;;;;;4978927;28;20197;-91
2023/10/02 13:32:26;;;;;;;29.50;22.85;;;22.00;80.40;;;;;;4980277;28;20179;-91
2023/10/02 13:34:54;;;;;;;28.63;21.75;;;22.00;79.80;;;;;;4979736;28;20221;-90
2023/10/02 13:37:20;;;;;;;31.70;22.15;;;22.00;80.00;;;;;;4978660;28;20182;-91
2023/10/02 13:39:45;;;;;;;33.08;21.38;;;22.00;79.90;;;;;;4979557;28;20178;-91
2023/10/02 13:42:11;;;;;;;29.75;20.92;;;21.80;80.30;;;;;;4979204;28;20647;-91
2023/10/02 13:44:37;;;;;;;31.65;20.85;;;21.80;79.90;;;;;;4978201;28;20199;-90
2023/10/02 13:47:05;;;;;;;26.70;20.42;;;21.90;80.30;;;;;;4982759;28;20181;-90
2023/10/02 13:49:31;;;;;;;30.95;21.30;;;22.00;80.60;;;;;;4978148;28;20681;-91
2023/10/02 13:51:56;;;;;;;33.72;22.48;;;21.90;80.60;;;;;;4978402;28;20174;-91
2023/10/02 13:54:22;;;;;;;25.90;21.67;;;22.10;80.80;;;;;;4977309;28;20190;-90
2023/10/02 13:56:47;;;;;;;25.23;20.33;;;22.00;79.00;;;;;;4977300;28;20174;-91